sensor_id;sensor_type;location;lat;lon;timestamp;temperature;humidity
36800;DHT22;22752;51.960;5.886;2022-12-29T00:01:23;11.30;99.90
36800;DHT22;22752;51.960;5.886;2022-12-29T00:03:49;11.30;99.90
36800;DHT22;22752;51.960;5.886;2022-12-29T00:06:14;11.30;99.90
36800;DHT22;22752;51.960;5.886;2022-12-29T00:08:40;11.30;99.90
36800;DHT22;22752;51.960;5.886;2022-12-29T00:11:11;11.30;99.90
36800;DHT22;22752;51.960;5.886;2022-12-29T00:13:37;11.30;99.90
36800;DHT22;22752;51.960;5.886;2022-12-29T00:16:21;11.30;99.90
36800;DHT22;22752;51.960;5.886;2022-12-29T00:18:47;11.30;99.90
36800;DHT22;22752;51.960;5.886;2022-12-29T00:21:18;11.30;99.90
36800;DHT22;22752;51.960;5.886;2022-12-29T00:24:03;11.30;99.90
36800;DHT22;22752;51.960;5.886;2022-12-29T00:26:56;11.20;99.90
36800;DHT22;22752;51.960;5.886;2022-12-29T00:29:42;11.20;99.90
36800;DHT22;22752;51.960;5.886;2022-12-29T00:32:26;11.20;99.90
36800;DHT22;22752;51.960;5.886;2022-12-29T00:35:12;11.20;99.90
36800;DHT22;22752;51.960;5.886;2022-12-29T00:37:44;11.30;99.90
36800;DHT22;22752;51.960;5.886;2022-12-29T00:40:30;11.20;99.90
36800;DHT22;22752;51.960;5.886;2022-12-29T00:43:14;11.30;99.90
36800;DHT22;22752;51.960;5.886;2022-12-29T00:45:57;11.30;99.90
36800;DHT22;22752;51.960;5.886;2022-12-29T00:48:23;11.30;99.90
36800;DHT22;22752;51.960;5.886;2022-12-29T00:51:08;11.30;99.90
36800;DHT22;22752;51.960;5.886;2022-12-29T00:53:34;11.30;99.90
36800;DHT22;22752;51.960;5.886;2022-12-29T00:56:00;11.40;99.90
36800;DHT22;22752;51.960;5.886;2022-12-29T00:58:29;11.30;99.90
36800;DHT22;22752;51.960;5.886;2022-12-29T01:01:06;11.40;99.90
36800;DHT22;22752;51.960;5.886;2022-12-29T01:03:33;11.40;99.90
36800;DHT22;22752;51.960;5.886;2022-12-29T01:06:07;11.30;99.90
36800;DHT22;22752;51.960;5.886;2022-12-29T01:08:33;11.30;99.90
36800;DHT22;22752;51.960;5.886;2022-12-29T01:11:05;11.30;99.90
36800;DHT22;22752;51.960;5.886;2022-12-29T01:13:31;11.30;99.90
36800;DHT22;22752;51.960;5.886;2022-12-29T01:15:57;11.30;99.90
36800;DHT22;22752;51.960;5.886;2022-12-29T01:18:24;11.30;99.90
36800;DHT22;22752;51.960;5.886;2022-12-29T01:20:51;11.40;99.90
36800;DHT22;22752;51.960;5.886;2022-12-29T01:23:16;11.40;99.90
36800;DHT22;22752;51.960;5.886;2022-12-29T01:25:42;11.40;99.90
36800;DHT22;22752;51.960;5.886;2022-12-29T01:28:08;11.40;99.90
36800;DHT22;22752;51.960;5.886;2022-12-29T01:30:36;11.40;99.90
36800;DHT22;22752;51.960;5.886;2022-12-29T01:33:02;11.40;99.90
36800;DHT22;22752;51.960;5.886;2022-12-29T01:35:28;11.40;99.90
36800;DHT22;22752;51.960;5.886;2022-12-29T01:37:54;11.30;99.90
36800;DHT22;22752;51.960;5.886;2022-12-29T01:40:20;11.30;99.90
36800;DHT22;22752;51.960;5.886;2022-12-29T01:42:45;11.30;99.90
36800;DHT22;22752;51.960;5.886;2022-12-29T01:45:16;11.30;99.90
36800;DHT22;22752;51.960;5.886;2022-12-29T01:47:52;11.20;99.90
36800;DHT22;22752;51.960;5.886;2022-12-29T01:50:32;11.20;99.90
36800;DHT22;22752;51.960;5.886;2022-12-29T01:53:18;11.30;99.90
36800;DHT22;22752;51.960;5.886;2022-12-29T01:55:50;11.20;99.90
36800;DHT22;22752;51.960;5.886;2022-12-29T01:58:20;11.20;99.90
36800;DHT22;22752;51.960;5.886;2022-12-29T02:00:46;11.30;99.90
36800;DHT22;22752;51.960;5.886;2022-12-29T02:03:12;11.30;99.90
36800;DHT22;22752;51.960;5.886;2022-12-29T02:05:39;11.30;99.90
36800;DHT22;22752;51.960;5.886;2022-12-29T02:08:06;11.30;99.90
36800;DHT22;22752;51.960;5.886;2022-12-29T02:10:32;11.30;99.90
36800;DHT22;22752;51.960;5.886;2022-12-29T02:12:59;11.30;99.90
36800;DHT22;22752;51.960;5.886;2022-12-29T02:18:19;11.40;99.90
36800;DHT22;22752;51.960;5.886;2022-12-29T02:42:46;11.60;99.90
36800;DHT22;22752;51.960;5.886;2022-12-29T02:47:54;11.60;99.90
36800;DHT22;22752;51.960;5.886;2022-12-29T02:50:23;11.70;99.90
36800;DHT22;22752;51.960;5.886;2022-12-29T02:52:59;11.70;99.90
36800;DHT22;22752;51.960;5.886;2022-12-29T02:55:26;11.70;99.90
36800;DHT22;22752;51.960;5.886;2022-12-29T02:58:16;11.80;99.90
36800;DHT22;22752;51.960;5.886;2022-12-29T03:06:27;11.80;99.90
36800;DHT22;22752;51.960;5.886;2022-12-29T03:11:45;11.90;99.90
36800;DHT22;22752;51.960;5.886;2022-12-29T03:18:10;11.90;99.90
36800;DHT22;22752;51.960;5.886;2022-12-29T03:20:44;11.90;99.90
36800;DHT22;22752;51.960;5.886;2022-12-29T03:23:13;11.90;99.90
36800;DHT22;22752;51.960;5.886;2022-12-29T03:25:43;11.90;99.90
36800;DHT22;22752;51.960;5.886;2022-12-29T03:28:21;11.90;99.90
36800;DHT22;22752;51.960;5.886;2022-12-29T03:30:48;11.90;99.90
36800;DHT22;22752;51.960;5.886;2022-12-29T03:33:18;11.90;99.90
36800;DHT22;22752;51.960;5.886;2022-12-29T03:35:46;11.90;99.90
36800;DHT22;22752;51.960;5.886;2022-12-29T03:38:30;11.90;99.90
36800;DHT22;22752;51.960;5.886;2022-12-29T03:41:00;12.00;99.90
36800;DHT22;22752;51.960;5.886;2022-12-29T03:43:29;11.90;99.90
36800;DHT22;22752;51.960;5.886;2022-12-29T03:45:55;11.90;99.90
36800;DHT22;22752;51.960;5.886;2022-12-29T03:48:20;11.90;99.90
36800;DHT22;22752;51.960;5.886;2022-12-29T03:50:46;11.90;99.90
36800;DHT22;22752;51.960;5.886;2022-12-29T03:53:11;11.90;99.90
36800;DHT22;22752;51.960;5.886;2022-12-29T03:55:37;11.90;99.90
36800;DHT22;22752;51.960;5.886;2022-12-29T03:58:03;11.90;99.90
36800;DHT22;22752;51.960;5.886;2022-12-29T04:00:28;11.90;99.90
36800;DHT22;22752;51.960;5.886;2022-12-29T04:02:54;11.90;99.90
36800;DHT22;22752;51.960;5.886;2022-12-29T04:05:20;11.80;99.90
36800;DHT22;22752;51.960;5.886;2022-12-29T04:07:46;11.80;99.90
36800;DHT22;22752;51.960;5.886;2022-12-29T04:10:12;11.90;99.90
36800;DHT22;22752;51.960;5.886;2022-12-29T04:12:37;11.80;99.90
36800;DHT22;22752;51.960;5.886;2022-12-29T04:15:03;11.80;99.90
36800;DHT22;22752;51.960;5.886;2022-12-29T04:17:29;11.80;99.90
36800;DHT22;22752;51.960;5.886;2022-12-29T04:19:55;11.80;99.90
36800;DHT22;22752;51.960;5.886;2022-12-29T04:22:40;11.80;99.90
36800;DHT22;22752;51.960;5.886;2022-12-29T04:25:06;11.80;99.90
36800;DHT22;22752;51.960;5.886;2022-12-29T04:27:32;11.80;99.90
36800;DHT22;22752;51.960;5.886;2022-12-29T04:29:57;11.80;99.90
36800;DHT22;22752;51.960;5.886;2022-12-29T04:32:23;11.80;99.90
36800;DHT22;22752;51.960;5.886;2022-12-29T04:34:49;11.70;99.90
36800;DHT22;22752;51.960;5.886;2022-12-29T04:37:14;11.70;99.90
36800;DHT22;22752;51.960;5.886;2022-12-29T04:39:40;11.60;99.90
36800;DHT22;22752;51.960;5.886;2022-12-29T04:42:05;11.60;99.90
36800;DHT22;22752;51.960;5.886;2022-12-29T04:44:31;11.50;99.90
36800;DHT22;22752;51.960;5.886;2022-12-29T04:46:56;11.40;99.90
36800;DHT22;22752;51.960;5.886;2022-12-29T04:49:23;11.30;99.90
36800;DHT22;22752;51.960;5.886;2022-12-29T04:51:48;11.20;99.90
36800;DHT22;22752;51.960;5.886;2022-12-29T04:54:14;11.20;99.90
36800;DHT22;22752;51.960;5.886;2022-12-29T04:56:39;11.20;99.90
36800;DHT22;22752;51.960;5.886;2022-12-29T04:59:05;11.10;99.90
36800;DHT22;22752;51.960;5.886;2022-12-29T05:01:30;11.10;99.90
36800;DHT22;22752;51.960;5.886;2022-12-29T05:03:56;11.10;99.90
36800;DHT22;22752;51.960;5.886;2022-12-29T05:06:22;11.00;99.90
36800;DHT22;22752;51.960;5.886;2022-12-29T05:08:47;11.00;99.90
36800;DHT22;22752;51.960;5.886;2022-12-29T05:11:13;10.90;99.90
36800;DHT22;22752;51.960;5.886;2022-12-29T05:13:38;10.90;99.90
36800;DHT22;22752;51.960;5.886;2022-12-29T05:16:04;10.90;99.90
36800;DHT22;22752;51.960;5.886;2022-12-29T05:18:30;10.90;99.90
36800;DHT22;22752;51.960;5.886;2022-12-29T05:20:55;10.80;99.90
36800;DHT22;22752;51.960;5.886;2022-12-29T05:23:21;10.90;99.90
36800;DHT22;22752;51.960;5.886;2022-12-29T05:25:47;10.90;99.90
36800;DHT22;22752;51.960;5.886;2022-12-29T05:28:13;10.80;99.90
36800;DHT22;22752;51.960;5.886;2022-12-29T05:30:38;10.80;99.90
36800;DHT22;22752;51.960;5.886;2022-12-29T05:33:04;10.70;99.90
36800;DHT22;22752;51.960;5.886;2022-12-29T05:35:32;10.60;99.90
36800;DHT22;22752;51.960;5.886;2022-12-29T05:37:57;10.50;99.90
36800;DHT22;22752;51.960;5.886;2022-12-29T05:40:23;10.40;99.90
36800;DHT22;22752;51.960;5.886;2022-12-29T05:42:49;10.30;99.90
36800;DHT22;22752;51.960;5.886;2022-12-29T05:45:15;10.30;99.90
36800;DHT22;22752;51.960;5.886;2022-12-29T05:47:40;10.20;99.90
36800;DHT22;22752;51.960;5.886;2022-12-29T05:50:06;10.10;99.90
36800;DHT22;22752;51.960;5.886;2022-12-29T05:52:32;10.10;99.90
36800;DHT22;22752;51.960;5.886;2022-12-29T05:54:57;10.00;99.90
36800;DHT22;22752;51.960;5.886;2022-12-29T05:57:23;10.00;99.90
36800;DHT22;22752;51.960;5.886;2022-12-29T05:59:48;9.90;99.90
36800;DHT22;22752;51.960;5.886;2022-12-29T06:02:14;10.00;99.90
36800;DHT22;22752;51.960;5.886;2022-12-29T06:04:40;10.10;99.90
36800;DHT22;22752;51.960;5.886;2022-12-29T06:07:05;10.10;99.90
36800;DHT22;22752;51.960;5.886;2022-12-29T06:09:31;10.20;99.90
36800;DHT22;22752;51.960;5.886;2022-12-29T06:11:56;10.20;99.90
36800;DHT22;22752;51.960;5.886;2022-12-29T06:14:22;10.20;99.90
36800;DHT22;22752;51.960;5.886;2022-12-29T06:16:48;10.20;99.90
36800;DHT22;22752;51.960;5.886;2022-12-29T06:19:13;10.20;99.90
36800;DHT22;22752;51.960;5.886;2022-12-29T06:21:39;10.30;99.90
36800;DHT22;22752;51.960;5.886;2022-12-29T06:24:05;10.30;99.90
36800;DHT22;22752;51.960;5.886;2022-12-29T06:26:31;10.30;99.90
36800;DHT22;22752;51.960;5.886;2022-12-29T06:28:56;10.30;99.90
36800;DHT22;22752;51.960;5.886;2022-12-29T06:31:22;10.20;99.90
36800;DHT22;22752;51.960;5.886;2022-12-29T06:33:48;10.20;99.90
36800;DHT22;22752;51.960;5.886;2022-12-29T06:36:13;10.20;99.90
36800;DHT22;22752;51.960;5.886;2022-12-29T06:38:39;10.10;99.90
36800;DHT22;22752;51.960;5.886;2022-12-29T06:41:04;10.10;99.90
36800;DHT22;22752;51.960;5.886;2022-12-29T06:43:30;10.10;99.90
36800;DHT22;22752;51.960;5.886;2022-12-29T06:45:57;10.20;99.90
36800;DHT22;22752;51.960;5.886;2022-12-29T06:48:23;10.30;99.90
36800;DHT22;22752;51.960;5.886;2022-12-29T06:50:48;10.30;99.90
36800;DHT22;22752;51.960;5.886;2022-12-29T06:53:14;10.40;99.90
36800;DHT22;22752;51.960;5.886;2022-12-29T06:55:42;10.40;99.90
36800;DHT22;22752;51.960;5.886;2022-12-29T06:58:07;10.40;99.90
36800;DHT22;22752;51.960;5.886;2022-12-29T07:00:33;10.50;99.90
36800;DHT22;22752;51.960;5.886;2022-12-29T07:02:59;10.50;99.90
36800;DHT22;22752;51.960;5.886;2022-12-29T07:05:25;10.50;99.90
36800;DHT22;22752;51.960;5.886;2022-12-29T07:07:53;10.50;99.90
36800;DHT22;22752;51.960;5.886;2022-12-29T07:10:19;10.60;99.90
36800;DHT22;22752;51.960;5.886;2022-12-29T07:12:44;10.60;99.90
36800;DHT22;22752;51.960;5.886;2022-12-29T07:15:10;10.60;99.90
36800;DHT22;22752;51.960;5.886;2022-12-29T07:17:36;10.70;99.90
36800;DHT22;22752;51.960;5.886;2022-12-29T07:20:01;10.70;99.90
36800;DHT22;22752;51.960;5.886;2022-12-29T07:22:27;10.70;99.90
36800;DHT22;22752;51.960;5.886;2022-12-29T07:24:53;10.70;99.90
36800;DHT22;22752;51.960;5.886;2022-12-29T07:27:18;10.70;99.90
36800;DHT22;22752;51.960;5.886;2022-12-29T07:29:44;10.70;99.90
36800;DHT22;22752;51.960;5.886;2022-12-29T07:32:10;10.70;99.90
36800;DHT22;22752;51.960;5.886;2022-12-29T07:34:35;10.70;99.90
36800;DHT22;22752;51.960;5.886;2022-12-29T07:37:01;10.70;99.90
36800;DHT22;22752;51.960;5.886;2022-12-29T07:39:26;10.70;99.90
36800;DHT22;22752;51.960;5.886;2022-12-29T07:41:52;10.70;99.90
36800;DHT22;22752;51.960;5.886;2022-12-29T07:44:18;10.70;99.90
36800;DHT22;22752;51.960;5.886;2022-12-29T07:46:44;10.80;99.90
36800;DHT22;22752;51.960;5.886;2022-12-29T07:49:09;10.80;99.90
36800;DHT22;22752;51.960;5.886;2022-12-29T07:51:35;10.80;99.90
36800;DHT22;22752;51.960;5.886;2022-12-29T07:54:00;10.80;99.90
36800;DHT22;22752;51.960;5.886;2022-12-29T07:56:26;10.90;99.90
36800;DHT22;22752;51.960;5.886;2022-12-29T07:58:52;10.90;99.90
36800;DHT22;22752;51.960;5.886;2022-12-29T08:01:18;10.90;99.90
36800;DHT22;22752;51.960;5.886;2022-12-29T08:03:44;10.90;99.90
36800;DHT22;22752;51.960;5.886;2022-12-29T08:06:12;10.90;99.90
36800;DHT22;22752;51.960;5.886;2022-12-29T08:08:37;10.90;99.90
36800;DHT22;22752;51.960;5.886;2022-12-29T08:11:03;10.90;99.90
36800;DHT22;22752;51.960;5.886;2022-12-29T08:13:29;10.80;99.90
36800;DHT22;22752;51.960;5.886;2022-12-29T08:15:57;10.70;99.90
36800;DHT22;22752;51.960;5.886;2022-12-29T08:18:22;10.60;99.90
36800;DHT22;22752;51.960;5.886;2022-12-29T08:20:48;10.50;99.90
36800;DHT22;22752;51.960;5.886;2022-12-29T08:23:13;10.50;99.90
36800;DHT22;22752;51.960;5.886;2022-12-29T08:25:39;10.50;99.90
36800;DHT22;22752;51.960;5.886;2022-12-29T08:28:05;10.50;99.90
36800;DHT22;22752;51.960;5.886;2022-12-29T08:30:30;10.60;99.90
36800;DHT22;22752;51.960;5.886;2022-12-29T08:32:56;10.70;99.90
36800;DHT22;22752;51.960;5.886;2022-12-29T08:35:22;10.70;99.90
36800;DHT22;22752;51.960;5.886;2022-12-29T08:37:47;10.80;99.90
36800;DHT22;22752;51.960;5.886;2022-12-29T08:40:13;10.80;99.90
36800;DHT22;22752;51.960;5.886;2022-12-29T08:42:39;10.90;99.90
36800;DHT22;22752;51.960;5.886;2022-12-29T08:45:06;10.90;99.90
36800;DHT22;22752;51.960;5.886;2022-12-29T08:47:31;11.00;99.90
36800;DHT22;22752;51.960;5.886;2022-12-29T08:49:57;11.00;99.90
36800;DHT22;22752;51.960;5.886;2022-12-29T08:52:23;11.00;99.90
36800;DHT22;22752;51.960;5.886;2022-12-29T08:54:48;11.00;99.90
36800;DHT22;22752;51.960;5.886;2022-12-29T08:57:14;11.10;99.90
36800;DHT22;22752;51.960;5.886;2022-12-29T08:59:39;11.10;99.90
36800;DHT22;22752;51.960;5.886;2022-12-29T09:02:05;11.10;99.90
36800;DHT22;22752;51.960;5.886;2022-12-29T09:04:31;11.20;99.90
36800;DHT22;22752;51.960;5.886;2022-12-29T09:06:57;11.20;99.90
36800;DHT22;22752;51.960;5.886;2022-12-29T09:09:22;11.20;99.90
36800;DHT22;22752;51.960;5.886;2022-12-29T09:11:48;11.20;99.90
36800;DHT22;22752;51.960;5.886;2022-12-29T09:14:15;11.20;99.90
36800;DHT22;22752;51.960;5.886;2022-12-29T09:16:41;11.20;99.90
36800;DHT22;22752;51.960;5.886;2022-12-29T09:19:25;11.10;99.90
36800;DHT22;22752;51.960;5.886;2022-12-29T09:21:51;11.00;99.90
36800;DHT22;22752;51.960;5.886;2022-12-29T09:24:17;10.90;99.90
36800;DHT22;22752;51.960;5.886;2022-12-29T09:26:43;10.90;99.90
36800;DHT22;22752;51.960;5.886;2022-12-29T09:29:09;10.80;99.90
36800;DHT22;22752;51.960;5.886;2022-12-29T09:31:34;10.80;99.90
36800;DHT22;22752;51.960;5.886;2022-12-29T09:34:00;10.80;99.90
36800;DHT22;22752;51.960;5.886;2022-12-29T09:36:25;10.80;99.90
36800;DHT22;22752;51.960;5.886;2022-12-29T09:38:53;10.80;99.90
36800;DHT22;22752;51.960;5.886;2022-12-29T09:41:43;10.80;99.90
36800;DHT22;22752;51.960;5.886;2022-12-29T09:44:31;10.80;99.90
36800;DHT22;22752;51.960;5.886;2022-12-29T09:47:03;10.80;99.90
36800;DHT22;22752;51.960;5.886;2022-12-29T09:52:14;10.90;99.90
36800;DHT22;22752;51.960;5.886;2022-12-29T09:54:53;11.00;99.90
36800;DHT22;22752;51.960;5.886;2022-12-29T09:57:27;10.90;99.90
36800;DHT22;22752;51.960;5.886;2022-12-29T10:00:02;11.00;99.90
36800;DHT22;22752;51.960;5.886;2022-12-29T10:05:02;11.00;99.90
36800;DHT22;22752;51.960;5.886;2022-12-29T10:07:33;10.90;99.90
36800;DHT22;22752;51.960;5.886;2022-12-29T10:10:13;10.80;99.90
36800;DHT22;22752;51.960;5.886;2022-12-29T10:24:38;10.60;99.90
36800;DHT22;22752;51.960;5.886;2022-12-29T10:27:07;10.60;99.90
36800;DHT22;22752;51.960;5.886;2022-12-29T10:29:39;10.60;99.90
36800;DHT22;22752;51.960;5.886;2022-12-29T10:32:13;10.60;99.90
36800;DHT22;22752;51.960;5.886;2022-12-29T10:34:47;10.50;99.90
36800;DHT22;22752;51.960;5.886;2022-12-29T10:37:42;10.50;99.90
36800;DHT22;22752;51.960;5.886;2022-12-29T10:40:51;10.50;99.90
36800;DHT22;22752;51.960;5.886;2022-12-29T10:43:28;10.50;99.90
36800;DHT22;22752;51.960;5.886;2022-12-29T10:46:01;10.50;99.90
36800;DHT22;22752;51.960;5.886;2022-12-29T10:48:32;10.50;99.90
36800;DHT22;22752;51.960;5.886;2022-12-29T10:51:00;10.50;99.90
36800;DHT22;22752;51.960;5.886;2022-12-29T10:53:40;10.50;99.90
36800;DHT22;22752;51.960;5.886;2022-12-29T10:56:22;10.60;99.90
36800;DHT22;22752;51.960;5.886;2022-12-29T10:58:51;10.60;99.90
36800;DHT22;22752;51.960;5.886;2022-12-29T11:01:20;10.60;99.90
36800;DHT22;22752;51.960;5.886;2022-12-29T11:03:56;10.70;99.90
36800;DHT22;22752;51.960;5.886;2022-12-29T11:06:26;10.70;99.90
36800;DHT22;22752;51.960;5.886;2022-12-29T11:09:16;10.70;99.90
36800;DHT22;22752;51.960;5.886;2022-12-29T11:11:44;10.70;99.90
36800;DHT22;22752;51.960;5.886;2022-12-29T11:14:16;10.70;99.90
36800;DHT22;22752;51.960;5.886;2022-12-29T11:16:43;10.70;99.90
36800;DHT22;22752;51.960;5.886;2022-12-29T11:19:21;10.70;99.90
36800;DHT22;22752;51.960;5.886;2022-12-29T11:21:47;10.80;99.90
36800;DHT22;22752;51.960;5.886;2022-12-29T11:24:25;10.80;99.90
36800;DHT22;22752;51.960;5.886;2022-12-29T11:26:56;10.80;99.90
36800;DHT22;22752;51.960;5.886;2022-12-29T11:29:38;10.90;99.90
36800;DHT22;22752;51.960;5.886;2022-12-29T11:32:30;10.90;99.90
36800;DHT22;22752;51.960;5.886;2022-12-29T11:34:56;11.00;99.90
36800;DHT22;22752;51.960;5.886;2022-12-29T11:37:29;10.90;99.90
36800;DHT22;22752;51.960;5.886;2022-12-29T11:40:05;10.90;99.90
36800;DHT22;22752;51.960;5.886;2022-12-29T11:42:38;11.00;99.90
36800;DHT22;22752;51.960;5.886;2022-12-29T11:45:22;11.00;99.90
36800;DHT22;22752;51.960;5.886;2022-12-29T11:47:52;11.10;99.90
36800;DHT22;22752;51.960;5.886;2022-12-29T11:50:21;11.10;99.90
36800;DHT22;22752;51.960;5.886;2022-12-29T11:52:49;11.20;99.90
36800;DHT22;22752;51.960;5.886;2022-12-29T11:55:21;11.20;99.90
36800;DHT22;22752;51.960;5.886;2022-12-29T11:57:50;11.20;99.90
36800;DHT22;22752;51.960;5.886;2022-12-29T12:00:24;11.20;99.90
36800;DHT22;22752;51.960;5.886;2022-12-29T12:03:03;11.20;99.90
36800;DHT22;22752;51.960;5.886;2022-12-29T12:05:37;11.10;99.90
36800;DHT22;22752;51.960;5.886;2022-12-29T12:11:25;11.10;99.90
36800;DHT22;22752;51.960;5.886;2022-12-29T12:16:41;11.00;99.90
36800;DHT22;22752;51.960;5.886;2022-12-29T12:22:04;11.10;99.90
36800;DHT22;22752;51.960;5.886;2022-12-29T12:27:33;11.10;99.90
36800;DHT22;22752;51.960;5.886;2022-12-29T12:32:54;11.20;99.90
36800;DHT22;22752;51.960;5.886;2022-12-29T12:40:53;11.20;99.90
36800;DHT22;22752;51.960;5.886;2022-12-29T12:43:41;11.20;99.90
36800;DHT22;22752;51.960;5.886;2022-12-29T12:51:55;11.50;99.90
36800;DHT22;22752;51.960;5.886;2022-12-29T12:54:32;11.50;99.90
36800;DHT22;22752;51.960;5.886;2022-12-29T12:57:12;11.50;99.90
36800;DHT22;22752;51.960;5.886;2022-12-29T13:05:29;11.20;99.90
36800;DHT22;22752;51.960;5.886;2022-12-29T13:13:44;11.20;99.90
36800;DHT22;22752;51.960;5.886;2022-12-29T13:19:08;11.20;99.90
36800;DHT22;22752;51.960;5.886;2022-12-29T13:26:51;11.20;99.90
36800;DHT22;22752;51.960;5.886;2022-12-29T13:29:37;11.10;99.90
36800;DHT22;22752;51.960;5.886;2022-12-29T13:32:32;11.20;99.90
36800;DHT22;22752;51.960;5.886;2022-12-29T13:37:47;11.00;99.90
36800;DHT22;22752;51.960;5.886;2022-12-29T13:40:17;11.00;99.90
36800;DHT22;22752;51.960;5.886;2022-12-29T13:42:44;11.00;99.90
36800;DHT22;22752;51.960;5.886;2022-12-29T13:45:16;11.10;99.90
36800;DHT22;22752;51.960;5.886;2022-12-29T13:48:07;11.10;99.90
36800;DHT22;22752;51.960;5.886;2022-12-29T13:50:37;11.20;99.90
36800;DHT22;22752;51.960;5.886;2022-12-29T13:56:12;11.10;99.90
36800;DHT22;22752;51.960;5.886;2022-12-29T13:58:47;11.10;99.90
36800;DHT22;22752;51.960;5.886;2022-12-29T14:04:26;11.10;99.90
36800;DHT22;22752;51.960;5.886;2022-12-29T14:12:40;11.00;99.90
36800;DHT22;22752;51.960;5.886;2022-12-29T14:15:13;10.90;99.90
36800;DHT22;22752;51.960;5.886;2022-12-29T14:17:41;10.80;99.90
36800;DHT22;22752;51.960;5.886;2022-12-29T14:20:18;10.80;99.90
36800;DHT22;22752;51.960;5.886;2022-12-29T14:23:15;10.80;99.90
36800;DHT22;22752;51.960;5.886;2022-12-29T14:26:13;10.70;99.90
36800;DHT22;22752;51.960;5.886;2022-12-29T14:28:47;10.70;99.90
36800;DHT22;22752;51.960;5.886;2022-12-29T14:37:00;10.50;99.90
36800;DHT22;22752;51.960;5.886;2022-12-29T14:39:43;10.50;99.90
36800;DHT22;22752;51.960;5.886;2022-12-29T14:44:53;10.40;99.90
36800;DHT22;22752;51.960;5.886;2022-12-29T14:47:33;10.40;99.90
36800;DHT22;22752;51.960;5.886;2022-12-29T14:50:06;10.30;99.90
36800;DHT22;22752;51.960;5.886;2022-12-29T14:52:45;10.20;99.90
36800;DHT22;22752;51.960;5.886;2022-12-29T14:57:59;10.00;99.90
36800;DHT22;22752;51.960;5.886;2022-12-29T15:00:35;10.00;99.90
36800;DHT22;22752;51.960;5.886;2022-12-29T15:03:05;10.00;99.90
36800;DHT22;22752;51.960;5.886;2022-12-29T15:05:36;10.00;99.90
36800;DHT22;22752;51.960;5.886;2022-12-29T15:08:04;10.00;99.90
36800;DHT22;22752;51.960;5.886;2022-12-29T15:10:45;10.00;99.90
36800;DHT22;22752;51.960;5.886;2022-12-29T15:13:21;10.00;99.90
36800;DHT22;22752;51.960;5.886;2022-12-29T15:15:47;10.00;99.90
36800;DHT22;22752;51.960;5.886;2022-12-29T15:18:25;9.90;99.90
36800;DHT22;22752;51.960;5.886;2022-12-29T15:20:57;9.90;99.90
36800;DHT22;22752;51.960;5.886;2022-12-29T15:23:23;9.90;99.90
36800;DHT22;22752;51.960;5.886;2022-12-29T15:25:56;9.90;99.90
36800;DHT22;22752;51.960;5.886;2022-12-29T15:28:24;9.90;99.90
36800;DHT22;22752;51.960;5.886;2022-12-29T15:30:54;9.90;99.90
36800;DHT22;22752;51.960;5.886;2022-12-29T15:33:26;9.90;99.90
36800;DHT22;22752;51.960;5.886;2022-12-29T15:35:54;9.90;99.90
36800;DHT22;22752;51.960;5.886;2022-12-29T15:38:23;9.90;99.90
36800;DHT22;22752;51.960;5.886;2022-12-29T15:40:54;9.80;99.90
36800;DHT22;22752;51.960;5.886;2022-12-29T15:45:50;9.80;99.90
36800;DHT22;22752;51.960;5.886;2022-12-29T15:48:19;9.80;99.90
36800;DHT22;22752;51.960;5.886;2022-12-29T15:50:46;9.80;99.90
36800;DHT22;22752;51.960;5.886;2022-12-29T15:53:22;9.80;99.90
36800;DHT22;22752;51.960;5.886;2022-12-29T15:55:58;9.80;99.90
36800;DHT22;22752;51.960;5.886;2022-12-29T15:58:29;9.70;99.90
36800;DHT22;22752;51.960;5.886;2022-12-29T16:00:58;9.70;99.90
36800;DHT22;22752;51.960;5.886;2022-12-29T16:03:32;9.70;99.90
36800;DHT22;22752;51.960;5.886;2022-12-29T16:06:23;9.70;99.90
36800;DHT22;22752;51.960;5.886;2022-12-29T16:08:56;9.70;99.90
36800;DHT22;22752;51.960;5.886;2022-12-29T16:11:30;9.70;99.90
36800;DHT22;22752;51.960;5.886;2022-12-29T16:13:57;9.70;99.90
36800;DHT22;22752;51.960;5.886;2022-12-29T16:16:36;9.70;99.90
36800;DHT22;22752;51.960;5.886;2022-12-29T16:19:14;9.80;99.90
36800;DHT22;22752;51.960;5.886;2022-12-29T16:21:41;9.70;99.90
36800;DHT22;22752;51.960;5.886;2022-12-29T16:24:13;9.80;99.90
36800;DHT22;22752;51.960;5.886;2022-12-29T16:26:49;9.80;99.90
36800;DHT22;22752;51.960;5.886;2022-12-29T16:29:16;9.80;99.90
36800;DHT22;22752;51.960;5.886;2022-12-29T16:37:19;9.70;99.90
36800;DHT22;22752;51.960;5.886;2022-12-29T16:39:49;9.70;99.90
36800;DHT22;22752;51.960;5.886;2022-12-29T16:50:31;9.50;99.90
36800;DHT22;22752;51.960;5.886;2022-12-29T16:52:58;9.40;99.90
36800;DHT22;22752;51.960;5.886;2022-12-29T16:55:23;9.30;99.90
36800;DHT22;22752;51.960;5.886;2022-12-29T16:57:51;9.30;99.90
36800;DHT22;22752;51.960;5.886;2022-12-29T17:00:27;9.20;99.90
36800;DHT22;22752;51.960;5.886;2022-12-29T17:02:57;9.20;99.90
36800;DHT22;22752;51.960;5.886;2022-12-29T17:05:23;9.20;99.90
36800;DHT22;22752;51.960;5.886;2022-12-29T17:07:49;9.20;99.90
36800;DHT22;22752;51.960;5.886;2022-12-29T17:10:16;9.20;99.90
36800;DHT22;22752;51.960;5.886;2022-12-29T17:12:43;9.30;99.90
36800;DHT22;22752;51.960;5.886;2022-12-29T17:15:26;9.30;99.90
36800;DHT22;22752;51.960;5.886;2022-12-29T17:17:59;9.20;99.90
36800;DHT22;22752;51.960;5.886;2022-12-29T17:20:27;9.20;99.90
36800;DHT22;22752;51.960;5.886;2022-12-29T17:22:56;9.10;99.90
36800;DHT22;22752;51.960;5.886;2022-12-29T17:25:28;9.10;99.90
36800;DHT22;22752;51.960;5.886;2022-12-29T17:28:23;9.10;99.90
36800;DHT22;22752;51.960;5.886;2022-12-29T17:30:48;9.10;99.90
36800;DHT22;22752;51.960;5.886;2022-12-29T17:33:17;9.00;99.90
36800;DHT22;22752;51.960;5.886;2022-12-29T17:35:43;9.00;99.90
36800;DHT22;22752;51.960;5.886;2022-12-29T17:38:21;8.90;99.90
36800;DHT22;22752;51.960;5.886;2022-12-29T17:40:48;8.80;99.90
36800;DHT22;22752;51.960;5.886;2022-12-29T17:43:15;8.80;99.90
36800;DHT22;22752;51.960;5.886;2022-12-29T17:45:41;8.80;99.90
36800;DHT22;22752;51.960;5.886;2022-12-29T17:48:13;8.80;99.90
36800;DHT22;22752;51.960;5.886;2022-12-29T17:50:40;8.80;99.90
36800;DHT22;22752;51.960;5.886;2022-12-29T17:53:11;8.80;99.90
36800;DHT22;22752;51.960;5.886;2022-12-29T17:55:38;8.90;99.90
36800;DHT22;22752;51.960;5.886;2022-12-29T17:58:20;8.80;99.90
36800;DHT22;22752;51.960;5.886;2022-12-29T18:00:47;8.80;99.90
36800;DHT22;22752;51.960;5.886;2022-12-29T18:03:15;8.80;99.90
36800;DHT22;22752;51.960;5.886;2022-12-29T18:05:41;8.70;99.90
36800;DHT22;22752;51.960;5.886;2022-12-29T18:08:09;8.70;99.90
36800;DHT22;22752;51.960;5.886;2022-12-29T18:10:36;8.60;99.90
36800;DHT22;22752;51.960;5.886;2022-12-29T18:13:02;8.50;99.90
36800;DHT22;22752;51.960;5.886;2022-12-29T18:15:31;8.40;99.90